createdAt,value
2022-10-28T00:00:09.168Z,9.719056
2022-10-28T00:01:09.207Z,9.719037
2022-10-28T00:02:09.200Z,9.719041
2022-10-28T00:03:09.197Z,9.719002
2022-10-28T00:04:09.110Z,9.718961
2022-10-28T00:05:09.107Z,9.719015
2022-10-28T00:06:09.100Z,9.719053
2022-10-28T00:07:09.085Z,9.718986
2022-10-28T00:08:09.085Z,9.718953
2022-10-28T00:09:12.126Z,9.718946
2022-10-28T00:10:09.119Z,9.719121
2022-10-28T00:11:09.051Z,9.719069
2022-10-28T00:12:09.027Z,9.719123
2022-10-28T00:13:09.022Z,9.719077
2022-10-28T00:14:09.035Z,9.719200
2022-10-28T00:15:08.992Z,9.719160
2022-10-28T00:16:09.006Z,9.719191
2022-10-28T00:17:08.995Z,9.719155
2022-10-28T00:18:08.974Z,9.719234
2022-10-28T00:19:08.975Z,9.719188
2022-10-28T00:20:08.964Z,9.719089
2022-10-28T00:21:08.943Z,9.719091
2022-10-28T00:22:08.955Z,9.719033
2022-10-28T00:23:08.918Z,9.719064
2022-10-28T00:24:08.932Z,9.719098
2022-10-28T00:25:08.902Z,9.719021
2022-10-28T00:26:08.902Z,9.719044
2022-10-28T00:27:08.886Z,9.719093
2022-10-28T00:28:08.882Z,9.719152
2022-10-28T00:29:08.890Z,9.719175
2022-10-28T00:30:08.868Z,9.719027
2022-10-28T00:31:08.845Z,9.719096
2022-10-28T00:32:08.838Z,9.719097
2022-10-28T00:33:08.817Z,9.719383
2022-10-28T00:34:08.814Z,9.719307
2022-10-28T00:35:08.821Z,9.719143
2022-10-28T00:36:08.832Z,9.718852
2022-10-28T00:37:08.785Z,9.719152
2022-10-28T00:38:08.771Z,9.719208
2022-10-28T00:39:08.768Z,9.719444
2022-10-28T00:40:08.745Z,9.719206
2022-10-28T00:41:08.780Z,9.719193
2022-10-28T00:42:08.758Z,9.719159
2022-10-28T00:43:08.732Z,9.719256
2022-10-28T00:44:08.719Z,9.719219
2022-10-28T00:45:08.718Z,9.719110
2022-10-28T00:46:08.695Z,9.719274
2022-10-28T00:47:08.706Z,9.719293
2022-10-28T00:48:08.688Z,9.719191
2022-10-28T00:49:08.702Z,9.719163
2022-10-28T00:50:08.660Z,9.719135
2022-10-28T00:51:08.642Z,9.719090
2022-10-28T00:52:08.675Z,9.719062
2022-10-28T00:53:08.622Z,9.719065
2022-10-28T00:54:08.611Z,9.719112
2022-10-28T00:55:08.635Z,9.719170
2022-10-28T00:56:08.596Z,9.719182
2022-10-28T00:57:08.587Z,9.719053
2022-10-28T00:58:08.611Z,9.718987
2022-10-28T00:59:08.582Z,9.719046
2022-10-28T01:00:08.620Z,9.719030
2022-10-28T01:01:08.576Z,9.719050
2022-10-28T01:02:09.604Z,9.719050
2022-10-28T01:03:08.531Z,9.719115
2022-10-28T01:04:08.544Z,9.719108
2022-10-28T01:05:08.532Z,9.719119
2022-10-28T01:06:08.510Z,9.719073
2022-10-28T01:07:08.556Z,9.719143
2022-10-28T01:08:08.493Z,9.719061
2022-10-28T01:09:08.473Z,9.719198
2022-10-28T01:10:08.461Z,9.719025
2022-10-28T01:11:08.448Z,9.719153
2022-10-28T01:12:08.466Z,9.719150
2022-10-28T01:13:08.432Z,9.719127
2022-10-28T01:14:08.439Z,9.719111
2022-10-28T01:15:08.412Z,9.719045
2022-10-28T01:16:08.400Z,9.719080
2022-10-28T01:17:08.414Z,9.718989
2022-10-28T01:18:08.377Z,9.719003
2022-10-28T01:19:08.378Z,9.719024
2022-10-28T01:20:08.368Z,9.719135
2022-10-28T01:21:08.362Z,9.719166
2022-10-28T01:22:08.355Z,9.719215
2022-10-28T01:23:08.351Z,9.719075
2022-10-28T01:24:08.324Z,9.719122
2022-10-28T01:25:08.327Z,9.719176
2022-10-28T01:26:08.308Z,9.719060
2022-10-28T01:27:08.302Z,9.719127
2022-10-28T01:28:08.290Z,9.719194
2022-10-28T01:29:08.302Z,9.719419
2022-10-28T01:30:08.330Z,9.719356
2022-10-28T01:31:08.269Z,9.719544
2022-10-28T01:32:08.247Z,9.719456
2022-10-28T01:33:09.242Z,9.719185
2022-10-28T01:34:08.226Z,9.719254
2022-10-28T01:35:08.257Z,9.719336
2022-10-28T01:36:08.212Z,9.719167
2022-10-28T01:37:08.234Z,9.719125
2022-10-28T01:38:08.195Z,9.719143
2022-10-28T01:39:08.172Z,9.719179
2022-10-28T01:40:08.174Z,9.719253
2022-10-28T01:41:08.180Z,9.719211
2022-10-28T01:42:08.172Z,9.719266
2022-10-28T01:43:08.137Z,9.719256
2022-10-28T01:44:08.147Z,9.719172
2022-10-28T01:45:08.137Z,9.719094
2022-10-28T01:46:08.133Z,9.719193
2022-10-28T01:47:08.105Z,9.719141
2022-10-28T01:48:08.114Z,9.719151
2022-10-28T01:49:08.092Z,9.719180
2022-10-28T01:50:08.080Z,9.719139
2022-10-28T01:51:08.065Z,9.719130
2022-10-28T01:52:08.076Z,9.719053
2022-10-28T01:53:08.056Z,9.719107
2022-10-28T01:54:08.043Z,9.719065
2022-10-28T01:55:08.066Z,9.719090
2022-10-28T01:56:08.027Z,9.719122
2022-10-28T01:57:08.022Z,9.719151
2022-10-28T01:58:09.014Z,9.719110
2022-10-28T01:59:07.999Z,9.719146
2022-10-28T02:00:07.999Z,9.719089
2022-10-28T02:01:08.058Z,9.719159
2022-10-28T02:02:07.990Z,9.719156
2022-10-28T02:03:07.993Z,9.719244
2022-10-28T02:04:07.948Z,9.719209
2022-10-28T02:05:07.943Z,9.719195
2022-10-28T02:06:07.922Z,9.719181
2022-10-28T02:07:07.929Z,9.719143
2022-10-28T02:08:07.915Z,9.719224
2022-10-28T02:09:07.944Z,9.719245
2022-10-28T02:10:07.906Z,9.719206
2022-10-28T02:11:07.879Z,9.719189
2022-10-28T02:12:07.899Z,9.719154
2022-10-28T02:13:07.908Z,9.719174
2022-10-28T02:14:07.860Z,9.719217
2022-10-28T02:16:07.834Z,9.719150
2022-10-28T02:17:07.826Z,9.719195
2022-10-28T02:18:07.833Z,9.719277
2022-10-28T02:19:07.793Z,9.719317
2022-10-28T02:20:07.805Z,9.719234
2022-10-28T02:21:07.779Z,9.719240
2022-10-28T02:22:07.808Z,9.719223
2022-10-28T02:23:07.765Z,9.719297
2022-10-28T02:24:07.754Z,9.719180
2022-10-28T02:25:07.756Z,9.719193
2022-10-28T02:26:07.750Z,9.719189
2022-10-28T02:27:07.720Z,9.719112
2022-10-28T02:28:07.749Z,9.719263
2022-10-28T02:29:07.702Z,9.719237
2022-10-28T02:30:07.693Z,9.719186
2022-10-28T02:31:07.753Z,9.719102
2022-10-28T02:32:07.685Z,9.719109
2022-10-28T02:33:07.670Z,9.719173
2022-10-28T02:34:07.703Z,9.719131
2022-10-28T02:35:07.645Z,9.719107
2022-10-28T02:36:07.643Z,9.719177
2022-10-28T02:37:07.624Z,9.719203
2022-10-28T02:38:07.618Z,9.719191
2022-10-28T02:39:07.639Z,9.719136
2022-10-28T02:40:07.593Z,9.719143
2022-10-28T02:41:08.588Z,9.719092
2022-10-28T02:42:07.577Z,9.718973
2022-10-28T02:43:07.580Z,9.719133
2022-10-28T02:44:07.604Z,9.719172
2022-10-28T02:45:07.554Z,9.719137
2022-10-28T02:46:07.550Z,9.719074
2022-10-28T02:47:07.563Z,9.719075
2022-10-28T02:48:07.521Z,9.719112
2022-10-28T02:49:07.510Z,9.719161
2022-10-28T02:50:07.522Z,9.719158
2022-10-28T02:51:07.500Z,9.719133
2022-10-28T02:52:07.517Z,9.719101
2022-10-28T02:53:07.474Z,9.719069
2022-10-28T02:54:07.494Z,9.719077
2022-10-28T02:55:07.481Z,9.719151
2022-10-28T02:56:07.454Z,9.719160
2022-10-28T02:57:07.434Z,9.719188
2022-10-28T02:58:07.427Z,9.719228
2022-10-28T02:59:07.459Z,9.719231
2022-10-28T03:00:07.412Z,9.719141
2022-10-28T03:01:07.500Z,9.719131
2022-10-28T03:02:07.430Z,9.719092
2022-10-28T03:03:07.387Z,9.719002
2022-10-28T03:04:07.388Z,9.719066
2022-10-28T03:05:07.370Z,9.719142
2022-10-28T03:06:07.393Z,9.719239
2022-10-28T03:07:07.364Z,9.719201
2022-10-28T03:08:07.361Z,9.719144
2022-10-28T03:09:07.341Z,9.719215
2022-10-28T03:10:07.332Z,9.719274
2022-10-28T03:11:07.306Z,9.719281
2022-10-28T03:12:07.298Z,9.719266
2022-10-28T03:13:07.282Z,9.719351
2022-10-28T03:14:10.626Z,9.719302
2022-10-28T03:15:07.263Z,9.719315
2022-10-28T03:16:07.270Z,9.719334
2022-10-28T03:17:07.248Z,9.719323
2022-10-28T03:18:07.301Z,9.719354
2022-10-28T03:19:10.267Z,9.719321
2022-10-28T03:20:07.223Z,9.719352
2022-10-28T03:21:07.208Z,9.719296
2022-10-28T03:22:07.183Z,9.719296
2022-10-28T03:23:07.171Z,9.719141
2022-10-28T03:24:07.197Z,9.719146
2022-10-28T03:25:07.174Z,9.719307
2022-10-28T03:26:07.187Z,9.719382
2022-10-28T03:27:07.149Z,9.719440
2022-10-28T03:28:07.134Z,9.719470
2022-10-28T03:29:07.144Z,9.719504
2022-10-28T03:30:07.116Z,9.719481
2022-10-28T03:31:07.106Z,9.719421
2022-10-28T03:32:07.097Z,9.719527
2022-10-28T03:33:07.077Z,9.719537
2022-10-28T03:34:07.096Z,9.719570
2022-10-28T03:35:07.085Z,9.719511
2022-10-28T03:36:07.083Z,9.719033
2022-10-28T03:37:07.064Z,9.719376
2022-10-28T03:38:07.043Z,9.719243
2022-10-28T03:39:07.027Z,9.719342
2022-10-28T03:40:07.017Z,9.719563
2022-10-28T03:41:07.024Z,9.719376
2022-10-28T03:42:06.996Z,9.719451
2022-10-28T03:43:07.014Z,9.719216
2022-10-28T03:44:06.993Z,9.719336
2022-10-28T03:45:06.990Z,9.719352
2022-10-28T03:46:06.994Z,9.719434
2022-10-28T03:47:06.953Z,9.719060
2022-10-28T03:48:06.947Z,9.719165
2022-10-28T03:49:06.935Z,9.719229
2022-10-28T03:50:06.919Z,9.719379
2022-10-28T03:51:06.939Z,9.719404
2022-10-28T03:52:06.905Z,9.719517
2022-10-28T03:53:06.883Z,9.719468
2022-10-28T03:54:06.911Z,9.719314
2022-10-28T03:55:06.881Z,9.719353
2022-10-28T03:56:06.862Z,9.719378
2022-10-28T03:57:06.890Z,9.719851
2022-10-28T03:58:06.858Z,9.719521
2022-10-28T03:59:06.855Z,9.719450
2022-10-28T04:00:06.831Z,9.719342
2022-10-28T04:01:06.870Z,9.719346
2022-10-28T04:02:06.964Z,9.719287
2022-10-28T04:03:06.791Z,9.719323
2022-10-28T04:04:06.781Z,9.719344
2022-10-28T04:05:06.768Z,9.719488
2022-10-28T04:06:06.873Z,9.719592
2022-10-28T04:07:06.763Z,9.719575
2022-10-28T04:08:06.744Z,9.719380
2022-10-28T04:09:06.742Z,9.719149
2022-10-28T04:10:06.741Z,9.719307
2022-10-28T04:11:06.728Z,9.719352
2022-10-28T04:12:06.704Z,9.719557
2022-10-28T04:13:06.717Z,9.719355
2022-10-28T04:14:06.717Z,9.719892
2022-10-28T04:15:06.669Z,9.720095
2022-10-28T04:16:06.672Z,9.720158
2022-10-28T04:17:06.662Z,9.719428
2022-10-28T04:18:06.700Z,9.719383
2022-10-28T04:19:06.642Z,9.718983
2022-10-28T04:20:06.685Z,9.719063
2022-10-28T04:21:06.614Z,9.719243
2022-10-28T04:22:06.602Z,9.719160
2022-10-28T04:23:06.625Z,9.719397
2022-10-28T04:24:06.620Z,9.719410
2022-10-28T04:25:06.625Z,9.719453
2022-10-28T04:26:06.563Z,9.719402
2022-10-28T04:27:06.601Z,9.719412
2022-10-28T04:28:06.538Z,9.719316
2022-10-28T04:29:06.574Z,9.719172
2022-10-28T04:30:06.525Z,9.719213
2022-10-28T04:31:06.536Z,9.719219
2022-10-28T04:32:06.519Z,9.719284
2022-10-28T04:33:07.547Z,9.719297
2022-10-28T04:34:06.565Z,9.719271
2022-10-28T04:35:06.486Z,9.719186
2022-10-28T04:36:06.467Z,9.719293
2022-10-28T04:37:06.576Z,9.719316
2022-10-28T04:38:06.458Z,9.719207
2022-10-28T04:39:06.451Z,9.719081
2022-10-28T04:40:06.447Z,9.719211
2022-10-28T04:41:06.412Z,9.719099
2022-10-28T04:42:06.425Z,9.719011
2022-10-28T04:43:08.569Z,9.719162
2022-10-28T04:44:07.396Z,9.719093
2022-10-28T04:45:06.371Z,9.719182
2022-10-28T04:46:06.371Z,9.719233
2022-10-28T04:47:06.364Z,9.718993
2022-10-28T04:48:06.440Z,9.719083
2022-10-28T04:49:06.350Z,9.719124
2022-10-28T04:50:06.375Z,9.719140
2022-10-28T04:51:06.330Z,9.719168
2022-10-28T04:52:06.338Z,9.719229
2022-10-28T04:53:06.305Z,9.718993
2022-10-28T04:54:06.303Z,9.719133
2022-10-28T04:55:06.291Z,9.719289
2022-10-28T04:56:06.281Z,9.719230
2022-10-28T04:57:06.264Z,9.719156
2022-10-28T04:58:06.277Z,9.719202
2022-10-28T04:59:06.255Z,9.719260
2022-10-28T05:00:06.259Z,9.719339
2022-10-28T05:01:06.264Z,9.719164
2022-10-28T05:02:06.420Z,9.719163
2022-10-28T05:03:06.294Z,9.719308
2022-10-28T05:04:06.226Z,9.719245
2022-10-28T05:05:06.239Z,9.719212
2022-10-28T05:06:06.168Z,9.719172
2022-10-28T05:07:06.162Z,9.719198
2022-10-28T05:08:06.167Z,9.719166
2022-10-28T05:09:06.155Z,9.719153
2022-10-28T05:10:06.201Z,9.719179
2022-10-28T05:11:06.152Z,9.719191
2022-10-28T05:12:06.125Z,9.719164
2022-10-28T05:13:06.100Z,9.718958
2022-10-28T05:14:06.106Z,9.719145
2022-10-28T05:15:06.144Z,9.719223
2022-10-28T05:16:06.103Z,9.719296
2022-10-28T05:17:06.068Z,9.719237
2022-10-28T05:18:06.058Z,9.719164
2022-10-28T05:19:06.071Z,9.719116
2022-10-28T05:20:06.045Z,9.719005
2022-10-28T05:21:06.049Z,9.719073
2022-10-28T05:22:06.045Z,9.718996
2022-10-28T05:23:06.032Z,9.718984
2022-10-28T05:24:06.106Z,9.719016
2022-10-28T05:25:06.008Z,9.718997
2022-10-28T05:26:06.061Z,9.718977
2022-10-28T05:27:05.972Z,9.719072
2022-10-28T05:28:06.055Z,9.719103
2022-10-28T05:29:05.991Z,9.719116
2022-10-28T05:30:05.987Z,9.719046
2022-10-28T05:31:05.952Z,9.719020
2022-10-28T05:32:05.960Z,9.719007
2022-10-28T05:33:05.920Z,9.718995
2022-10-28T05:34:05.909Z,9.719067
2022-10-28T05:35:05.905Z,9.719063
2022-10-28T05:36:05.915Z,9.719078
2022-10-28T05:37:05.907Z,9.719072
2022-10-28T05:38:05.876Z,9.719108
2022-10-28T05:39:05.940Z,9.719079
2022-10-28T05:40:05.839Z,9.719159
2022-10-28T05:41:05.850Z,9.719176
2022-10-28T05:42:05.825Z,9.718880
2022-10-28T05:43:05.809Z,9.719065
2022-10-28T05:44:05.817Z,9.719028
2022-10-28T05:45:05.824Z,9.718681
2022-10-28T05:46:05.784Z,9.718457
2022-10-28T05:47:05.791Z,9.718996
2022-10-28T05:48:05.771Z,9.719396
2022-10-28T05:49:05.800Z,9.719658
2022-10-28T05:50:05.755Z,9.719253
2022-10-28T05:51:05.740Z,9.718029
2022-10-28T05:52:05.759Z,9.718246
2022-10-28T05:53:05.726Z,9.718808
2022-10-28T05:54:05.808Z,9.718901
2022-10-28T05:55:05.700Z,9.718901
2022-10-28T05:56:05.722Z,9.718901
2022-10-28T05:57:05.746Z,9.719412
2022-10-28T05:58:05.680Z,9.719356
2022-10-28T05:59:05.688Z,9.719356
2022-10-28T06:00:05.683Z,9.719350
2022-10-28T06:01:05.637Z,9.719378
2022-10-28T06:02:05.622Z,9.719118
2022-10-28T06:03:05.616Z,9.718948
2022-10-28T06:04:05.717Z,9.719032
2022-10-28T06:05:05.702Z,9.719032
2022-10-28T06:06:05.592Z,9.719032
2022-10-28T06:07:05.595Z,9.719032
2022-10-28T06:08:05.568Z,9.719032
2022-10-28T06:09:05.566Z,9.719032
2022-10-28T06:10:05.564Z,9.719032
2022-10-28T06:11:04.051Z,9.719032
2022-10-28T06:12:04.018Z,9.719176
2022-10-28T06:13:03.995Z,9.718966
2022-10-28T06:14:04.026Z,9.719156
2022-10-28T06:15:03.974Z,9.719324
2022-10-28T06:16:04.050Z,9.719491
2022-10-28T06:17:03.958Z,9.719464
2022-10-28T06:18:03.949Z,9.719370
2022-10-28T06:19:03.971Z,9.719476
2022-10-28T06:20:03.941Z,9.719173
2022-10-28T06:21:03.922Z,9.719496
2022-10-28T06:22:03.934Z,9.719212
2022-10-28T06:23:03.905Z,9.719157
2022-10-28T06:24:05.121Z,9.719157
2022-10-28T06:25:03.908Z,9.719198
2022-10-28T06:26:03.872Z,9.719178
2022-10-28T06:27:03.863Z,9.719158
2022-10-28T06:28:06.968Z,9.719163
2022-10-28T06:29:04.852Z,9.719213
2022-10-28T06:30:03.865Z,9.719140
2022-10-28T06:31:03.831Z,9.719094
2022-10-28T06:32:03.819Z,9.719125
2022-10-28T06:33:03.836Z,9.719169
2022-10-28T06:34:03.832Z,9.719185
2022-10-28T06:35:03.791Z,9.719223
2022-10-28T06:36:03.791Z,9.719263
2022-10-28T06:37:03.878Z,9.719188
2022-10-28T06:38:08.476Z,9.719064
2022-10-28T06:39:04.780Z,9.719043
2022-10-28T06:40:03.834Z,9.719110
2022-10-28T06:41:03.774Z,9.719172
2022-10-28T06:42:03.762Z,9.719212
2022-10-28T06:43:03.732Z,9.719083
2022-10-28T06:44:03.812Z,9.719055
2022-10-28T06:45:03.719Z,9.718985
2022-10-28T06:46:03.725Z,9.719112
2022-10-28T06:47:05.210Z,9.719108
2022-10-28T06:48:05.243Z,9.719058
2022-10-28T06:49:05.192Z,9.719143
2022-10-28T06:50:05.233Z,9.719135
2022-10-28T06:51:05.174Z,9.719173
2022-10-28T06:52:05.174Z,9.719069
2022-10-28T06:53:05.163Z,9.719275
2022-10-28T06:54:05.154Z,9.719279
2022-10-28T06:55:05.131Z,9.719274
2022-10-28T06:56:05.199Z,9.719248
2022-10-28T06:57:06.112Z,9.719268
2022-10-28T06:58:05.120Z,9.719303
2022-10-28T06:59:05.149Z,9.719162
2022-10-28T07:00:05.090Z,9.719103
2022-10-28T07:01:05.074Z,9.719161
2022-10-28T07:02:05.322Z,9.719176
2022-10-28T07:03:05.132Z,9.719185
2022-10-28T07:04:05.065Z,9.719204
2022-10-28T07:05:05.087Z,9.719182
2022-10-28T07:06:05.108Z,9.719110
2022-10-28T07:07:05.043Z,9.719099
2022-10-28T07:08:05.018Z,9.719294
2022-10-28T07:09:05.026Z,9.719233
2022-10-28T07:10:05.003Z,9.719374
2022-10-28T07:11:05.015Z,9.719131
2022-10-28T07:12:05.788Z,9.719191
2022-10-28T07:13:05.978Z,9.719089
2022-10-28T07:14:04.978Z,9.719226
2022-10-28T07:15:04.941Z,9.719197
2022-10-28T07:16:04.931Z,9.719086
2022-10-28T07:17:04.931Z,9.719178
2022-10-28T07:18:04.955Z,9.719167
2022-10-28T07:19:04.925Z,9.719092
2022-10-28T07:20:04.903Z,9.719209
2022-10-28T07:21:04.909Z,9.719255
2022-10-28T07:22:04.891Z,9.719142
2022-10-28T07:23:04.876Z,9.719242
2022-10-28T07:24:04.870Z,9.719256
2022-10-28T07:25:04.860Z,9.719392
2022-10-28T07:26:04.868Z,9.719344
2022-10-28T07:27:04.836Z,9.719243
2022-10-28T07:28:04.831Z,9.719188
2022-10-28T07:29:04.818Z,9.719009
2022-10-28T07:30:04.801Z,9.719195
2022-10-28T07:31:04.892Z,9.719187
2022-10-28T07:32:04.794Z,9.719100
2022-10-28T07:33:04.781Z,9.719094
2022-10-28T07:34:04.780Z,9.719182
2022-10-28T07:35:04.877Z,9.719211
2022-10-28T07:36:04.775Z,9.719287
2022-10-28T07:37:04.742Z,9.719049
2022-10-28T07:38:04.739Z,9.718870
2022-10-28T07:39:04.719Z,9.718884
2022-10-28T07:40:04.728Z,9.718973
2022-10-28T07:41:04.725Z,9.719131
2022-10-28T07:42:04.794Z,9.719074
2022-10-28T07:43:04.689Z,9.719077
2022-10-28T07:44:04.676Z,9.719079
2022-10-28T07:45:04.791Z,9.719021
2022-10-28T07:46:04.679Z,9.718821
2022-10-28T07:47:04.665Z,9.718908
2022-10-28T07:48:04.669Z,9.718892
2022-10-28T07:49:04.632Z,9.719028
2022-10-28T07:50:04.669Z,9.718918
2022-10-28T07:51:04.588Z,9.718863
2022-10-28T07:52:04.681Z,9.719264
2022-10-28T07:53:04.671Z,9.719426
2022-10-28T07:54:04.581Z,9.719266
2022-10-28T07:55:04.630Z,9.719259
2022-10-28T07:56:04.555Z,9.719112
2022-10-28T07:57:04.562Z,9.718949
2022-10-28T07:58:04.603Z,9.719016
2022-10-28T07:59:04.524Z,9.719215
2022-10-28T08:00:04.506Z,9.719046
2022-10-28T08:01:23.542Z,9.719041
2022-10-28T08:02:04.564Z,9.719000
2022-10-28T08:03:04.509Z,9.719025
2022-10-28T08:04:04.479Z,9.718948
2022-10-28T08:05:04.595Z,9.719061
2022-10-28T08:06:04.489Z,9.718968
2022-10-28T08:07:04.449Z,9.718911
2022-10-28T08:08:04.418Z,9.718962
2022-10-28T08:09:04.464Z,9.718872
2022-10-28T08:10:04.431Z,9.718793
2022-10-28T08:11:04.391Z,9.719122
2022-10-28T08:12:04.387Z,9.719145
2022-10-28T08:13:04.371Z,9.719078
2022-10-28T08:14:04.373Z,9.718888
2022-10-28T08:15:04.435Z,9.718737
2022-10-28T08:16:04.364Z,9.718791
2022-10-28T08:17:04.329Z,9.718988
2022-10-28T08:18:04.315Z,9.718778
2022-10-28T08:19:07.663Z,9.718882
2022-10-28T08:20:04.305Z,9.719053
2022-10-28T08:21:04.310Z,9.718991
2022-10-28T08:22:04.274Z,9.719176
2022-10-28T08:23:06.713Z,9.719143
2022-10-28T08:24:04.259Z,9.719134
2022-10-28T08:25:04.307Z,9.719061
2022-10-28T08:26:04.247Z,9.719030
2022-10-28T08:27:04.222Z,9.718833
2022-10-28T08:28:04.248Z,9.718930
2022-10-28T08:29:04.264Z,9.719023
2022-10-28T08:30:04.195Z,9.718893
2022-10-28T08:31:09.693Z,9.718948
2022-10-28T08:32:06.170Z,9.718876
2022-10-28T08:33:04.176Z,9.718916
2022-10-28T08:34:04.156Z,9.719006
2022-10-28T08:35:04.241Z,9.719020
2022-10-28T08:36:04.170Z,9.718968
2022-10-28T08:37:04.152Z,9.719045
2022-10-28T08:38:04.112Z,9.718921
2022-10-28T08:39:04.150Z,9.718954
2022-10-28T08:40:04.106Z,9.718906
2022-10-28T08:41:04.092Z,9.719410
2022-10-28T08:42:04.084Z,9.719468
2022-10-28T08:43:04.063Z,9.719200
2022-10-28T08:44:04.056Z,9.719205
2022-10-28T08:45:04.126Z,9.719327
2022-10-28T08:46:04.051Z,9.719450
2022-10-28T08:47:04.028Z,9.719368
2022-10-28T08:48:04.028Z,9.719397
2022-10-28T08:49:04.022Z,9.719277
2022-10-28T08:50:04.074Z,9.719397
2022-10-28T08:51:04.000Z,9.719428
2022-10-28T08:52:03.993Z,9.719325
2022-10-28T08:53:04.061Z,9.719262
2022-10-28T08:54:03.972Z,9.719033
2022-10-28T08:55:03.959Z,9.719233
2022-10-28T08:56:03.950Z,9.719137
2022-10-28T08:57:03.936Z,9.718959
2022-10-28T08:58:03.947Z,9.718902
2022-10-28T08:59:03.922Z,9.719101
2022-10-28T09:00:03.914Z,9.718933
2022-10-28T09:01:10.649Z,9.718919
2022-10-28T09:02:03.899Z,9.719359
2022-10-28T09:03:03.889Z,9.719327
2022-10-28T09:04:03.883Z,9.719200
2022-10-28T09:05:03.868Z,9.719358
2022-10-28T09:06:03.885Z,9.719377
2022-10-28T09:07:03.839Z,9.719325
2022-10-28T09:08:03.876Z,9.719254
2022-10-28T09:09:03.816Z,9.719334
2022-10-28T09:10:03.819Z,9.719293
2022-10-28T09:11:03.816Z,9.719302
2022-10-28T09:12:03.795Z,9.719112
2022-10-28T09:13:03.779Z,9.719251
2022-10-28T09:14:03.788Z,9.719066
2022-10-28T09:15:03.757Z,9.719041
2022-10-28T09:16:03.823Z,9.719303
2022-10-28T09:17:22.653Z,9.719248
2022-10-28T09:18:03.737Z,9.719226
2022-10-28T09:19:03.736Z,9.719068
2022-10-28T09:20:03.718Z,9.719175
2022-10-28T09:21:03.724Z,9.719275
2022-10-28T09:22:03.714Z,9.719361
2022-10-28T09:23:03.690Z,9.719129
2022-10-28T09:24:03.668Z,9.719175
2022-10-28T09:25:03.738Z,9.719300
2022-10-28T09:26:03.663Z,9.719358
2022-10-28T09:27:03.675Z,9.719305
2022-10-28T09:28:03.633Z,9.719218
2022-10-28T09:29:03.759Z,9.718970
2022-10-28T09:30:03.620Z,9.719239
2022-10-28T09:31:03.609Z,9.719205
2022-10-28T09:32:03.614Z,9.719217
2022-10-28T09:33:03.586Z,9.719254
2022-10-28T09:34:03.580Z,9.719305
2022-10-28T09:35:03.597Z,9.719318
2022-10-28T09:36:03.559Z,9.719402
2022-10-28T09:37:03.592Z,9.719327
2022-10-28T09:38:03.567Z,9.719405
2022-10-28T09:39:03.525Z,9.719300
2022-10-28T09:40:03.534Z,9.719396
2022-10-28T09:41:03.507Z,9.719399
2022-10-28T09:42:03.500Z,9.719393
2022-10-28T09:43:03.538Z,9.719361
2022-10-28T09:44:03.496Z,9.719358
2022-10-28T09:45:03.559Z,9.719391
2022-10-28T09:46:03.478Z,9.719330
2022-10-28T09:47:03.449Z,9.719319
2022-10-28T09:48:03.437Z,9.719385
2022-10-28T09:49:03.424Z,9.719362
2022-10-28T09:50:03.436Z,9.719307
2022-10-28T09:51:03.435Z,9.719310
2022-10-28T09:52:03.408Z,9.719303
2022-10-28T09:53:03.391Z,9.719327
2022-10-28T09:54:03.388Z,9.719331
2022-10-28T09:55:03.378Z,9.719397
2022-10-28T09:56:03.497Z,9.719373
2022-10-28T09:57:03.363Z,9.719374
2022-10-28T09:58:03.456Z,9.719345
2022-10-28T09:59:03.371Z,9.719342
2022-10-28T10:00:03.330Z,9.719358
2022-10-28T10:01:03.311Z,9.719413
2022-10-28T10:02:03.532Z,9.719363
2022-10-28T10:03:03.395Z,9.719394
2022-10-28T10:04:03.342Z,9.719378
2022-10-28T10:05:03.336Z,9.719416
2022-10-28T10:06:03.271Z,9.719317
2022-10-28T10:07:04.290Z,9.719317
2022-10-28T10:08:03.247Z,9.719275
2022-10-28T10:09:03.244Z,9.719291
2022-10-28T10:11:03.215Z,9.719215
2022-10-28T10:12:03.228Z,9.719167
2022-10-28T10:13:03.206Z,9.719137
2022-10-28T10:14:03.211Z,9.719143
2022-10-28T10:15:03.184Z,9.719175
2022-10-28T10:16:03.164Z,9.719208
2022-10-28T10:17:03.162Z,9.719172
2022-10-28T10:18:03.145Z,9.719159
2022-10-28T10:19:03.166Z,9.719291
2022-10-28T10:20:03.195Z,9.719171
2022-10-28T10:21:03.118Z,9.719157
2022-10-28T10:22:03.130Z,9.719188
2022-10-28T10:23:03.106Z,9.719219
2022-10-28T10:24:03.091Z,9.719170
2022-10-28T10:25:03.078Z,9.719142
2022-10-28T10:26:06.684Z,9.719171
2022-10-28T10:27:03.090Z,9.719110
2022-10-28T10:28:03.056Z,9.719182
2022-10-28T10:29:03.036Z,9.719292
2022-10-28T10:30:03.056Z,9.719146
2022-10-28T10:31:03.056Z,9.719014
2022-10-28T10:32:03.018Z,9.718871
2022-10-28T10:33:03.008Z,9.718888
2022-10-28T10:34:03.008Z,9.718946
2022-10-28T10:35:02.994Z,9.718821
2022-10-28T10:36:03.018Z,9.718775
2022-10-28T10:38:02.953Z,9.719253
2022-10-28T10:39:02.995Z,9.718986
2022-10-28T10:40:02.937Z,9.719090
2022-10-28T10:41:02.944Z,9.719141
2022-10-28T10:42:02.944Z,9.719058
2022-10-28T10:43:13.699Z,9.718964
2022-10-28T10:44:04.921Z,9.719017
2022-10-28T10:45:02.885Z,9.719007
2022-10-28T10:46:02.916Z,9.718991
2022-10-28T10:47:06.065Z,9.718998
2022-10-28T10:48:02.874Z,9.718953
2022-10-28T10:49:02.904Z,9.719047
2022-10-28T10:50:02.847Z,9.719100
2022-10-28T10:51:02.886Z,9.719148
2022-10-28T10:52:02.906Z,9.719060
2022-10-28T10:53:02.822Z,9.719086
2022-10-28T10:54:02.858Z,9.719025
2022-10-28T10:55:02.791Z,9.719160
2022-10-28T10:56:02.839Z,9.719182
2022-10-28T10:57:02.827Z,9.719120
2022-10-28T10:58:02.763Z,9.719157
2022-10-28T10:59:02.745Z,9.719074
2022-10-28T11:00:02.743Z,9.719136
2022-10-28T11:01:02.734Z,9.719193
2022-10-28T11:02:02.824Z,9.719179
2022-10-28T11:03:02.800Z,9.719314
2022-10-28T11:04:02.711Z,9.719365
2022-10-28T11:05:02.701Z,9.719542
2022-10-28T11:06:22.507Z,9.719567
2022-10-28T11:07:04.705Z,9.719526
2022-10-28T11:08:02.686Z,9.719431
2022-10-28T11:09:02.820Z,9.719305
2022-10-28T11:10:02.662Z,9.719397
2022-10-28T11:11:02.642Z,9.719473
2022-10-28T11:12:05.526Z,9.719419
2022-10-28T11:13:02.631Z,9.719396
2022-10-28T11:14:02.604Z,9.719420
2022-10-28T11:15:02.590Z,9.719392
2022-10-28T11:16:02.587Z,9.719419
2022-10-28T11:17:02.576Z,9.719364
2022-10-28T11:18:02.584Z,9.719392
2022-10-28T11:19:02.647Z,9.719440
2022-10-28T11:20:02.563Z,9.719459
2022-10-28T11:21:02.544Z,9.719439
2022-10-28T11:22:02.543Z,9.719410
2022-10-28T11:23:02.545Z,9.719543
2022-10-28T11:24:02.559Z,9.719698
2022-10-28T11:25:02.543Z,9.719828
2022-10-28T11:26:02.489Z,9.720005
2022-10-28T11:27:02.492Z,9.719999
2022-10-28T11:28:04.368Z,9.719918
2022-10-28T11:29:02.465Z,9.719823
2022-10-28T11:30:02.484Z,9.719686
2022-10-28T11:31:02.516Z,9.719495
2022-10-28T11:32:02.494Z,9.719393
2022-10-28T11:33:24.674Z,9.719168
2022-10-28T11:34:02.421Z,9.718870
2022-10-28T11:35:02.451Z,9.718560
2022-10-28T11:36:02.401Z,9.718372
2022-10-28T11:37:02.382Z,9.718303
2022-10-28T11:38:02.379Z,9.718419
2022-10-28T11:39:02.399Z,9.718520
2022-10-28T11:40:02.372Z,9.718495
2022-10-28T11:41:02.350Z,9.718533
2022-10-28T11:42:02.348Z,9.718431
2022-10-28T11:43:02.325Z,9.718477
2022-10-28T11:44:05.247Z,9.718582
2022-10-28T11:45:03.328Z,9.718694
2022-10-28T11:46:02.305Z,9.718920
2022-10-28T11:47:04.943Z,9.718751